Apple Valley, Minnesota
Current Conditions -  °F | °C
As of 4:21 AM on Tuesday 27 Jan 2015 (Local Time) from KLVN Reporting Station
Overcast Overcast  
Wind Chill: -4°   Ceiling: 2300
Heat Index:   Visibility: 10mi
Dew Point: -3°   Wind: 7mph
Humidity: 80%   Direction: 20°NNE
Pressure: 30.07"   Gusts: NA
Location:  44.74°N, 93.22°W
Report Text: KLVN 271021Z AUTO 02006KT 10SM OVC023 00/M03 A3007 RMK AO2
Loading
Personal Weather Stations






























Interactive Weather Map New forecast layout! Learn more

10-Day Weather Forecast

Advertisements
Track Severe Weather on mobile